Time;durP1;ratioP1;P1;durP2;ratioP2;P2;SDS_P1;SDS_P2;PMS_P1;PMS_P2;Temp;Humidity;BMP_temperature;BMP_pressure;BME280_temperature;BME280_humidity;BME280_pressure;Samples;Min_cycle;Max_cycle;Signal;HPM_P1;HPM_P2
2023/10/05 00:01:03;;;;;;;5.63;4.43;;;7.90;99.90;;;;;;5015192;28;20287;-64
2023/10/05 00:03:30;;;;;;;10.77;4.53;;;7.90;99.90;;;;;;5014770;28;20244;-64
2023/10/05 00:06:04;;;;;;;5.13;4.65;;;7.80;99.90;;;;;;5014806;28;20240;-64
2023/10/05 00:08:35;;;;;;;4.70;3.47;;;7.80;99.90;;;;;;5015159;28;20211;-64
2023/10/05 00:11:06;;;;;;;6.18;4.68;;;7.80;99.90;;;;;;5014784;28;20223;-64
2023/10/05 00:13:34;;;;;;;5.80;4.25;;;7.80;99.90;;;;;;5014434;28;20250;-64
2023/10/05 00:16:03;;;;;;;5.43;4.72;;;7.80;99.90;;;;;;5014579;28;20310;-64
2023/10/05 00:18:30;;;;;;;8.52;3.97;;;7.80;99.90;;;;;;5014861;28;20588;-64
2023/10/05 00:20:59;;;;;;;4.78;4.38;;;7.70;99.90;;;;;;5014943;28;20588;-64
2023/10/05 00:23:27;;;;;;;4.70;4.30;;;7.70;99.90;;;;;;5014281;28;20208;-64
2023/10/05 00:25:56;;;;;;;5.75;4.30;;;7.70;99.90;;;;;;5014588;28;20235;-64
2023/10/05 00:28:26;;;;;;;7.03;4.72;;;7.70;99.90;;;;;;5014403;28;20702;-64
2023/10/05 00:30:54;;;;;;;4.82;4.20;;;7.60;99.90;;;;;;5014629;28;20230;-64
2023/10/05 00:33:23;;;;;;;8.02;4.63;;;7.60;99.90;;;;;;5014243;28;20212;-64
2023/10/05 00:35:50;;;;;;;9.93;5.85;;;7.60;99.90;;;;;;5014592;28;20227;-64
2023/10/05 00:38:18;;;;;;;7.45;4.75;;;7.60;99.90;;;;;;5031366;23;20260;-65
2023/10/05 00:40:56;;;;;;;5.65;4.65;;;7.60;99.90;;;;;;4999603;28;20671;-66
2023/10/05 00:43:25;;;;;;;6.50;5.18;;;7.60;99.90;;;;;;5005491;28;20204;-65
2023/10/05 00:45:53;;;;;;;5.30;4.80;;;7.60;99.90;;;;;;5014423;28;20211;-65
2023/10/05 00:48:29;;;;;;;7.03;4.28;;;7.60;99.90;;;;;;5014107;28;20310;-65
2023/10/05 00:50:59;;;;;;;5.75;4.97;;;7.50;99.90;;;;;;5014190;28;20227;-65
2023/10/05 00:53:28;;;;;;;5.60;4.43;;;7.50;99.90;;;;;;5013796;28;20214;-65
2023/10/05 00:56:07;;;;;;;5.90;5.00;;;7.50;99.90;;;;;;5007570;28;20721;-65
2023/10/05 00:58:44;;;;;;;6.07;4.45;;;7.50;99.90;;;;;;5013637;28;20231;-65
2023/10/05 01:01:16;;;;;;;8.02;4.20;;;7.50;99.90;;;;;;5013778;28;20736;-65
2023/10/05 01:04:11;;;;;;;10.30;4.53;;;7.50;99.90;;;;;;5013654;28;20266;-65
2023/10/05 01:06:40;;;;;;;3.95;3.58;;;7.50;99.90;;;;;;5013702;28;20216;-65
2023/10/05 01:09:12;;;;;;;4.63;3.95;;;7.50;99.90;;;;;;5013763;28;20212;-65
2023/10/05 01:11:43;;;;;;;7.03;3.63;;;7.50;99.90;;;;;;5011868;28;20215;-65
2023/10/05 01:14:16;;;;;;;6.78;4.22;;;7.50;99.90;;;;;;5012131;28;20678;-65
2023/10/05 01:16:43;;;;;;;7.07;4.53;;;7.50;99.90;;;;;;5010674;28;20969;-66
2023/10/05 01:19:10;;;;;;;4.90;3.80;;;7.50;99.90;;;;;;5013797;28;20253;-66
2023/10/05 01:21:39;;;;;;;6.53;4.90;;;7.60;99.90;;;;;;5013791;28;20313;-65
2023/10/05 01:24:09;;;;;;;4.53;4.13;;;7.60;99.90;;;;;;5013214;28;20744;-65
2023/10/05 01:26:37;;;;;;;6.38;4.38;;;7.60;99.90;;;;;;5013579;28;20207;-65
2023/10/05 01:29:04;;;;;;;4.63;4.22;;;7.60;99.90;;;;;;5013370;28;20584;-65
2023/10/05 01:31:32;;;;;;;7.75;4.30;;;7.60;99.90;;;;;;5013538;28;20225;-65
2023/10/05 01:33:59;;;;;;;4.55;4.05;;;7.60;99.90;;;;;;5008250;28;20236;-66
2023/10/05 01:36:26;;;;;;;5.15;4.60;;;7.60;99.90;;;;;;5010348;28;20227;-65
2023/10/05 01:38:56;;;;;;;5.22;4.38;;;7.70;99.90;;;;;;5013077;28;20238;-65
2023/10/05 01:41:27;;;;;;;6.65;4.25;;;7.70;99.90;;;;;;5013146;28;20297;-65
2023/10/05 01:43:55;;;;;;;4.63;4.20;;;7.70;99.90;;;;;;5013097;28;20218;-65
2023/10/05 01:46:23;;;;;;;3.20;3.00;;;7.70;99.90;;;;;;5013220;28;20259;-65
2023/10/05 01:48:51;;;;;;;4.50;4.05;;;7.70;99.90;;;;;;5013147;28;20243;-65
2023/10/05 01:51:23;;;;;;;4.78;3.45;;;7.60;99.90;;;;;;5012899;28;20258;-65
2023/10/05 01:53:52;;;;;;;3.58;3.00;;;7.60;99.90;;;;;;5012456;28;20216;-65
2023/10/05 01:56:20;;;;;;;4.47;2.88;;;7.60;99.90;;;;;;5013167;28;20242;-65
2023/10/05 01:58:50;;;;;;;6.25;3.35;;;7.60;99.90;;;;;;5012827;28;20232;-65
2023/10/05 02:01:20;;;;;;;4.72;4.20;;;7.60;99.90;;;;;;5012937;28;20211;-65
2023/10/05 02:03:48;;;;;;;6.10;4.20;;;7.60;99.90;;;;;;5012486;28;20306;-65
2023/10/05 02:06:16;;;;;;;4.20;3.80;;;7.60;99.90;;;;;;5012855;28;20238;-66
2023/10/05 02:08:42;;;;;;;6.47;3.70;;;7.60;99.90;;;;;;5012564;28;20323;-65
2023/10/05 02:11:09;;;;;;;5.97;5.05;;;7.60;99.90;;;;;;5012831;28;20229;-65
2023/10/05 02:13:37;;;;;;;5.40;3.85;;;7.60;99.90;;;;;;5012462;28;20700;-65
2023/10/05 02:16:14;;;;;;;4.50;3.90;;;7.60;99.90;;;;;;5012661;28;20212;-65
2023/10/05 02:18:41;;;;;;;5.75;4.68;;;7.60;99.90;;;;;;5012572;28;20231;-65
2023/10/05 02:21:17;;;;;;;8.25;4.07;;;7.60;99.90;;;;;;5012197;28;20257;-65
2023/10/05 02:23:46;;;;;;;4.60;3.95;;;7.60;99.90;;;;;;5012194;28;20252;-65
2023/10/05 02:26:23;;;;;;;5.55;3.95;;;7.60;99.90;;;;;;5012535;28;20628;-65
2023/10/05 02:28:51;;;;;;;7.50;3.30;;;7.50;99.90;;;;;;5012390;28;20227;-65
2023/10/05 02:31:20;;;;;;;3.70;3.00;;;7.50;99.90;;;;;;5012215;28;20236;-65
2023/10/05 02:33:46;;;;;;;3.45;2.88;;;7.50;99.90;;;;;;5010030;28;20235;-65
2023/10/05 02:36:20;;;;;;;5.40;2.92;;;7.50;99.90;;;;;;5012325;28;20254;-66
2023/10/05 02:38:53;;;;;;;4.50;4.10;;;7.50;99.90;;;;;;5011780;28;20799;-66
2023/10/05 02:41:24;;;;;;;4.82;4.10;;;7.50;99.90;;;;;;5012289;28;20264;-65
2023/10/05 02:43:53;;;;;;;5.65;3.30;;;7.50;99.90;;;;;;5011798;28;20211;-65
2023/10/05 02:46:24;;;;;;;5.65;4.05;;;7.50;99.90;;;;;;5012277;28;20642;-66
2023/10/05 02:48:51;;;;;;;4.55;3.42;;;7.50;99.90;;;;;;5010699;28;20755;-65
2023/10/05 02:51:20;;;;;;;4.75;3.47;;;7.50;99.90;;;;;;5003911;28;20219;-65
2023/10/05 02:53:47;;;;;;;4.22;3.40;;;7.50;99.90;;;;;;5011616;28;20203;-65
2023/10/05 02:56:18;;;;;;;5.13;3.92;;;7.50;99.90;;;;;;5011963;28;20214;-65
2023/10/05 02:58:45;;;;;;;5.93;3.70;;;7.50;99.90;;;;;;5012030;28;20231;-65
2023/10/05 03:01:13;;;;;;;6.35;4.60;;;7.50;99.90;;;;;;5011799;28;20204;-66
2023/10/05 03:03:43;;;;;;;3.60;3.30;;;7.50;99.90;;;;;;5011652;28;20211;-65
2023/10/05 03:06:10;;;;;;;4.38;3.25;;;7.50;99.90;;;;;;5011812;28;20213;-65
2023/10/05 03:08:37;;;;;;;5.68;4.15;;;7.50;99.90;;;;;;5011835;28;20232;-65
2023/10/05 03:11:07;;;;;;;5.50;4.10;;;7.50;99.90;;;;;;5011514;28;20319;-66
2023/10/05 03:13:33;;;;;;;8.07;4.57;;;7.60;99.90;;;;;;5011280;28;20293;-65
2023/10/05 03:16:06;;;;;;;5.85;5.38;;;7.60;99.90;;;;;;5011828;28;20568;-65
2023/10/05 03:18:37;;;;;;;5.75;4.03;;;7.60;99.90;;;;;;5011555;28;20722;-66
2023/10/05 03:21:10;;;;;;;4.15;3.80;;;7.60;99.90;;;;;;5011748;28;20273;-65
2023/10/05 03:23:37;;;;;;;5.00;3.25;;;7.60;99.90;;;;;;5011112;28;20207;-65
2023/10/05 03:26:06;;;;;;;4.22;3.83;;;7.70;99.90;;;;;;5011838;28;20214;-65
2023/10/05 03:28:35;;;;;;;4.15;3.75;;;7.70;99.90;;;;;;5011479;28;20235;-65
2023/10/05 03:31:06;;;;;;;4.53;4.13;;;7.70;99.90;;;;;;5011655;28;20601;-65
2023/10/05 03:33:34;;;;;;;4.82;4.00;;;7.80;99.90;;;;;;5012127;28;20215;-65
2023/10/05 03:36:06;;;;;;;8.30;3.83;;;7.80;99.90;;;;;;5015564;28;20204;-65
2023/10/05 03:38:35;;;;;;;3.95;3.65;;;7.80;99.90;;;;;;5015355;28;20236;-66
2023/10/05 03:41:04;;;;;;;5.57;3.88;;;7.80;99.90;;;;;;5015503;28;20674;-66
2023/10/05 03:43:32;;;;;;;3.53;3.17;;;7.80;99.90;;;;;;5015269;28;20257;-66
2023/10/05 03:46:07;;;;;;;5.65;3.92;;;7.80;99.90;;;;;;5015503;28;20216;-65
2023/10/05 03:48:38;;;;;;;6.03;4.40;;;7.80;99.90;;;;;;5015248;28;20322;-65
2023/10/05 03:51:15;;;;;;;4.18;3.78;;;7.90;99.90;;;;;;5015547;28;20600;-66
2023/10/05 03:53:48;;;;;;;4.22;3.75;;;7.80;99.90;;;;;;5014957;28;20246;-65
2023/10/05 03:56:20;;;;;;;4.18;3.78;;;7.80;99.90;;;;;;5015197;28;20222;-66
2023/10/05 03:58:47;;;;;;;7.25;3.72;;;7.80;99.90;;;;;;5013419;28;20225;-65
2023/10/05 04:01:15;;;;;;;3.88;2.88;;;7.80;99.90;;;;;;5014919;28;20240;-65
2023/10/05 04:03:43;;;;;;;4.40;3.97;;;7.80;99.90;;;;;;5014820;28;20298;-65
2023/10/05 04:06:17;;;;;;;9.57;3.10;;;7.80;99.90;;;;;;5015164;28;20215;-66
2023/10/05 04:08:49;;;;;;;4.20;3.80;;;7.80;99.90;;;;;;5014938;28;20227;-66
2023/10/05 04:11:17;;;;;;;4.05;3.13;;;7.80;99.90;;;;;;5014938;28;20227;-66
2023/10/05 04:13:44;;;;;;;5.63;4.05;;;7.90;99.90;;;;;;5014562;28;20208;-65
2023/10/05 04:16:17;;;;;;;5.22;4.20;;;7.90;99.90;;;;;;5014811;28;20583;-65
2023/10/05 04:18:49;;;;;;;4.70;3.75;;;7.90;99.90;;;;;;5014531;28;20238;-66
2023/10/05 04:21:18;;;;;;;6.07;3.90;;;7.90;99.90;;;;;;5014787;28;20211;-65
2023/10/05 04:23:49;;;;;;;4.72;3.78;;;7.90;99.90;;;;;;5014329;28;20218;-65
2023/10/05 04:26:21;;;;;;;5.20;3.80;;;7.90;99.90;;;;;;5014902;28;20198;-66
2023/10/05 04:28:54;;;;;;;5.80;3.65;;;7.90;99.90;;;;;;5014519;28;20235;-65
2023/10/05 04:31:25;;;;;;;6.47;4.22;;;8.00;99.90;;;;;;5014582;28;20607;-66
2023/10/05 04:33:52;;;;;;;4.65;4.25;;;8.00;99.90;;;;;;5014204;28;20270;-65
2023/10/05 04:36:22;;;;;;;4.72;4.22;;;8.00;99.90;;;;;;5014471;28;20262;-66
2023/10/05 04:38:51;;;;;;;5.20;4.60;;;8.00;99.90;;;;;;5014252;28;20859;-66
2023/10/05 04:41:20;;;;;;;4.72;3.75;;;8.00;99.90;;;;;;5014421;28;20212;-66
2023/10/05 04:43:48;;;;;;;5.35;3.75;;;8.00;99.90;;;;;;5014110;28;20226;-65
2023/10/05 04:46:18;;;;;;;3.60;3.30;;;8.00;99.90;;;;;;5014159;28;20214;-66
2023/10/05 04:48:55;;;;;;;7.20;4.97;;;8.00;99.90;;;;;;5014073;28;20299;-65
2023/10/05 04:51:24;;;;;;;4.63;4.10;;;8.00;99.90;;;;;;5014350;28;20228;-65
2023/10/05 04:53:54;;;;;;;4.68;4.28;;;8.00;99.90;;;;;;5013784;28;20299;-65
2023/10/05 04:56:35;;;;;;;4.60;3.42;;;8.10;99.90;;;;;;5014238;28;20555;-66
2023/10/05 05:02:12;;;;;;;4.73;3.27;;;8.00;99.90;;;;;;4972643;28;20622;-65
2023/10/05 05:04:52;;;;;;;4.60;4.25;;;8.10;99.90;;;;;;4972263;28;20441;-66
2023/10/05 05:07:21;;;;;;;4.78;4.38;;;8.10;99.90;;;;;;4972445;28;20222;-65
2023/10/05 05:09:50;;;;;;;4.75;4.10;;;8.10;99.90;;;;;;4972337;28;20241;-65
2023/10/05 05:12:17;;;;;;;4.38;3.97;;;8.10;99.90;;;;;;4972228;28;20357;-65
2023/10/05 05:14:45;;;;;;;4.65;3.70;;;8.20;99.90;;;;;;4972113;28;20207;-65
2023/10/05 05:17:14;;;;;;;4.73;3.20;;;8.20;99.90;;;;;;4972393;28;20316;-65
2023/10/05 05:19:41;;;;;;;7.40;5.00;;;8.20;99.90;;;;;;4971911;28;20458;-65
2023/10/05 05:22:09;;;;;;;5.25;3.92;;;8.20;99.90;;;;;;4972067;28;20532;-65
2023/10/05 05:24:37;;;;;;;4.07;3.58;;;8.20;99.90;;;;;;4971641;28;20227;-65
2023/10/05 05:27:11;;;;;;;4.10;3.70;;;8.20;99.90;;;;;;4971871;28;20256;-65
2023/10/05 05:29:39;;;;;;;4.10;3.00;;;8.20;99.90;;;;;;4971929;28;20275;-65
2023/10/05 05:32:10;;;;;;;3.67;3.13;;;8.20;99.90;;;;;;4977370;28;20259;-64
2023/10/05 05:34:37;;;;;;;6.65;5.72;;;8.30;99.90;;;;;;5013102;28;20732;-65
2023/10/05 05:37:05;;;;;;;5.18;3.42;;;8.20;99.90;;;;;;5013014;28;20246;-65
2023/10/05 05:39:38;;;;;;;5.32;4.10;;;8.20;99.90;;;;;;5013539;28;20292;-65
2023/10/05 05:42:12;;;;;;;5.80;4.20;;;8.30;99.90;;;;;;5013416;28;20367;-65
2023/10/05 05:44:40;;;;;;;4.47;4.03;;;8.30;99.90;;;;;;5013099;28;20248;-65
2023/10/05 05:47:09;;;;;;;4.45;4.10;;;8.30;99.90;;;;;;5012807;28;20231;-65
2023/10/05 05:49:38;;;;;;;6.07;4.88;;;8.30;99.90;;;;;;5013002;28;20581;-65
2023/10/05 05:52:05;;;;;;;6.80;3.83;;;8.30;99.90;;;;;;5012914;28;20266;-65
2023/10/05 05:54:32;;;;;;;3.30;3.00;;;8.30;99.90;;;;;;5012760;28;20205;-65
2023/10/05 05:56:59;;;;;;;3.88;3.47;;;8.30;99.90;;;;;;5012317;28;20304;-65
2023/10/05 05:59:27;;;;;;;5.07;3.92;;;8.30;99.90;;;;;;5012987;28;20213;-65
2023/10/05 06:01:54;;;;;;;6.40;3.88;;;8.30;99.90;;;;;;5012806;28;20641;-64
2023/10/05 06:04:21;;;;;;;6.75;4.78;;;8.40;99.90;;;;;;5012555;28;20206;-65
2023/10/05 06:06:48;;;;;;;9.90;3.80;;;8.40;99.90;;;;;;5012870;28;20221;-65
2023/10/05 06:09:19;;;;;;;7.60;5.03;;;8.40;99.90;;;;;;5012695;28;20212;-64
2023/10/05 06:11:49;;;;;;;4.85;3.92;;;8.40;99.90;;;;;;5012618;28;20765;-65
2023/10/05 06:14:17;;;;;;;5.25;3.53;;;8.50;99.90;;;;;;5012291;28;20223;-65
2023/10/05 06:16:45;;;;;;;4.78;3.60;;;8.50;99.90;;;;;;5012742;28;20220;-65
2023/10/05 06:19:12;;;;;;;4.85;3.85;;;8.50;99.90;;;;;;5012661;28;20299;-65
2023/10/05 06:21:39;;;;;;;5.32;4.75;;;8.50;99.90;;;;;;5012618;28;20208;-65
2023/10/05 06:24:07;;;;;;;5.90;3.35;;;8.60;99.90;;;;;;5012237;28;20216;-65
2023/10/05 06:26:34;;;;;;;6.83;4.30;;;8.60;99.90;;;;;;5012476;28;20300;-65
2023/10/05 06:29:00;;;;;;;5.67;4.13;;;8.60;99.90;;;;;;5012218;28;20857;-65
2023/10/05 06:31:28;;;;;;;4.20;3.80;;;8.60;99.90;;;;;;5012257;28;20493;-65
2023/10/05 06:33:56;;;;;;;6.97;5.00;;;8.60;99.90;;;;;;5012016;28;20457;-65
2023/10/05 06:36:23;;;;;;;6.57;4.35;;;8.70;99.90;;;;;;5012264;28;20461;-66
2023/10/05 06:38:50;;;;;;;5.43;4.90;;;8.80;99.90;;;;;;5012008;28;20236;-65
2023/10/05 06:41:22;;;;;;;4.50;4.03;;;8.90;99.90;;;;;;5018946;22;20508;-64
2023/10/05 06:43:49;;;;;;;5.50;4.97;;;8.90;99.90;;;;;;4991855;28;20457;-63
2023/10/05 06:46:20;;;;;;;8.50;4.53;;;9.00;99.90;;;;;;4992989;28;20458;-64
2023/10/05 06:48:49;;;;;;;4.18;3.72;;;9.00;99.90;;;;;;4992589;28;20453;-64
2023/10/05 06:51:26;;;;;;;8.47;5.10;;;9.10;99.90;;;;;;4992419;28;20321;-63
2023/10/05 06:53:53;;;;;;;7.93;4.50;;;9.10;99.90;;;;;;4992262;28;20548;-63
2023/10/05 06:56:20;;;;;;;4.53;4.20;;;9.20;99.90;;;;;;4992373;28;20454;-64
2023/10/05 06:58:47;;;;;;;4.27;3.87;;;9.20;99.90;;;;;;4992722;28;20547;-63
2023/10/05 07:01:14;;;;;;;5.87;4.60;;;9.30;99.90;;;;;;4992486;28;20512;-63
2023/10/05 07:03:41;;;;;;;6.07;4.80;;;9.40;99.90;;;;;;4992090;28;20450;-64
2023/10/05 07:06:08;;;;;;;7.07;6.17;;;9.40;99.90;;;;;;4992384;28;20907;-63
2023/10/05 07:08:36;;;;;;;6.13;5.53;;;9.50;99.90;;;;;;4991333;28;20536;-64
2023/10/05 07:11:06;;;;;;;7.30;4.50;;;9.60;99.90;;;;;;4992389;28;20563;-64
2023/10/05 07:13:33;;;;;;;9.10;4.13;;;9.60;99.90;;;;;;4991587;28;20449;-63
2023/10/05 07:16:00;;;;;;;9.33;5.20;;;9.70;99.90;;;;;;4992292;28;20481;-64
2023/10/05 07:18:27;;;;;;;6.10;3.60;;;9.80;99.90;;;;;;4992233;28;20971;-64
2023/10/05 07:20:54;;;;;;;7.00;6.40;;;9.90;99.90;;;;;;4992175;28;20474;-64
2023/10/05 07:23:20;;;;;;;8.67;7.80;;;9.90;99.90;;;;;;4991823;28;20892;-64
2023/10/05 07:25:49;;;;;;;4.47;3.90;;;10.10;99.90;;;;;;4992328;28;20458;-64
2023/10/05 07:28:15;;;;;;;13.77;5.10;;;10.20;99.90;;;;;;4992346;28;20446;-64
2023/10/05 07:30:43;;;;;;;4.33;3.93;;;10.30;99.90;;;;;;4992195;28;20480;-64
2023/10/05 07:33:10;;;;;;;6.73;4.13;;;10.40;99.90;;;;;;4992056;28;20596;-64
2023/10/05 07:35:38;;;;;;;6.53;3.70;;;10.60;99.90;;;;;;4991801;28;20457;-64
2023/10/05 07:38:06;;;;;;;4.63;4.13;;;10.70;99.90;;;;;;4991941;28;20996;-64
2023/10/05 07:40:35;;;;;;;5.70;3.90;;;10.80;99.90;;;;;;4991348;28;20909;-64
2023/10/05 07:43:06;;;;;;;4.43;4.03;;;10.90;99.90;;;;;;4991769;28;20534;-64
2023/10/05 07:45:33;;;;;;;5.30;3.60;;;11.00;99.90;;;;;;4991649;28;20966;-64
2023/10/05 07:48:00;;;;;;;4.47;3.60;;;11.20;99.90;;;;;;4990384;28;20478;-61
2023/10/05 07:50:27;;;;;;;7.27;5.27;;;11.30;99.90;;;;;;4991048;28;20477;-64
2023/10/05 07:52:55;;;;;;;5.40;4.23;;;11.40;99.90;;;;;;4991214;28;20496;-63
2023/10/05 07:55:22;;;;;;;6.63;5.13;;;11.60;99.90;;;;;;4991215;28;20455;-64
2023/10/05 07:57:49;;;;;;;6.43;5.00;;;11.70;99.90;;;;;;4991488;28;20478;-64
2023/10/05 08:00:20;;;;;;;8.47;5.87;;;11.90;99.90;;;;;;4991115;28;21016;-64
2023/10/05 08:02:47;;;;;;;6.30;5.70;;;12.00;99.90;;;;;;4991210;28;20483;-63
2023/10/05 08:05:15;;;;;;;14.33;6.20;;;12.10;99.90;;;;;;4990965;28;20465;-63
2023/10/05 08:07:42;;;;;;;6.40;4.77;;;12.30;99.90;;;;;;4991363;28;20541;-64
2023/10/05 08:10:15;;;;;;;9.00;5.07;;;12.40;99.90;;;;;;4990714;28;20494;-64
2023/10/05 08:12:43;;;;;;;5.77;5.27;;;12.50;99.90;;;;;;4991183;28;20514;-64
2023/10/05 08:15:14;;;;;;;7.67;5.93;;;12.60;99.90;;;;;;4990972;28;20451;-63
2023/10/05 08:17:42;;;;;;;7.13;6.33;;;12.80;99.90;;;;;;4991110;28;20459;-64
2023/10/05 08:20:10;;;;;;;11.07;7.20;;;12.90;99.90;;;;;;4992455;28;20479;-63
2023/10/05 08:22:37;;;;;;;8.23;5.90;;;13.00;99.90;;;;;;4994940;28;20443;-63
2023/10/05 08:25:10;;;;;;;13.13;6.63;;;13.10;99.90;;;;;;4994592;28;20938;-64
2023/10/05 08:27:38;;;;;;;13.87;6.20;;;13.30;99.90;;;;;;4995200;28;20586;-64
2023/10/05 08:30:07;;;;;;;5.93;5.27;;;13.40;99.90;;;;;;4994286;28;20486;-64
2023/10/05 08:32:36;;;;;;;9.60;4.70;;;13.50;99.90;;;;;;4994693;28;20491;-64
2023/10/05 08:35:12;;;;;;;9.80;5.57;;;13.60;99.90;;;;;;4994376;28;20455;-64
2023/10/05 08:37:42;;;;;;;10.30;5.40;;;13.80;99.90;;;;;;4993622;28;20486;-64
2023/10/05 08:40:30;;;;;;;7.20;5.10;;;13.90;99.90;;;;;;4993946;28;21125;-64
2023/10/05 08:43:08;;;;;;;8.07;5.30;;;14.00;99.90;;;;;;4994326;28;20441;-64
2023/10/05 08:45:45;;;;;;;10.77;6.40;;;14.00;99.90;;;;;;4994318;28;20977;-64
2023/10/05 08:48:15;;;;;;;6.80;4.50;;;14.10;99.90;;;;;;4994522;28;20450;-64
2023/10/05 08:50:46;;;;;;;7.60;5.83;;;14.20;99.90;;;;;;4993998;28;20472;-63
2023/10/05 08:53:14;;;;;;;8.70;5.73;;;14.30;99.90;;;;;;4994181;28;20489;-64
2023/10/05 08:55:43;;;;;;;10.43;5.57;;;14.40;99.90;;;;;;4994165;28;20463;-64
2023/10/05 08:58:18;;;;;;;6.97;4.47;;;14.50;99.90;;;;;;4994090;28;20541;-63
2023/10/05 09:00:45;;;;;;;6.60;4.83;;;14.60;99.90;;;;;;4994266;28;20976;-63
2023/10/05 09:03:28;;;;;;;9.70;4.90;;;14.80;99.90;;;;;;4993880;28;20547;-64
2023/10/05 09:06:13;;;;;;;8.63;4.27;;;14.90;99.90;;;;;;4994055;28;20452;-64
2023/10/05 09:08:53;;;;;;;8.03;4.07;;;15.00;99.90;;;;;;4994184;28;20448;-64
2023/10/05 09:11:26;;;;;;;8.97;5.80;;;15.10;99.90;;;;;;4993827;28;20560;-64
2023/10/05 09:13:53;;;;;;;6.17;4.73;;;15.20;99.90;;;;;;4993734;28;21312;-64
2023/10/05 09:16:30;;;;;;;6.30;4.43;;;15.30;99.90;;;;;;4993835;28;20530;-64
2023/10/05 09:19:00;;;;;;;7.10;4.60;;;15.30;99.90;;;;;;4993896;28;20505;-64
2023/10/05 09:21:50;;;;;;;6.07;4.17;;;15.50;99.90;;;;;;4993633;28;20476;-64
2023/10/05 09:24:21;;;;;;;7.80;5.20;;;15.50;99.90;;;;;;4993484;28;20503;-64
2023/10/05 09:26:55;;;;;;;5.90;5.40;;;15.60;99.90;;;;;;4992716;28;20450;-64
2023/10/05 09:29:23;;;;;;;11.43;6.57;;;15.70;99.90;;;;;;4991871;28;20477;-64
2023/10/05 09:31:54;;;;;;;6.40;4.80;;;15.80;99.90;;;;;;4992272;28;20476;-64
2023/10/05 09:34:41;;;;;;;10.20;5.00;;;15.90;99.90;;;;;;4993116;28;20444;-64
2023/10/05 09:37:11;;;;;;;6.90;5.07;;;15.90;99.90;;;;;;4993579;28;20539;-64
2023/10/05 09:39:43;;;;;;;6.23;4.30;;;16.00;99.90;;;;;;4992956;28;20481;-64
2023/10/05 09:42:16;;;;;;;12.20;4.47;;;16.10;99.90;;;;;;4993199;28;20969;-64
2023/10/05 09:44:50;;;;;;;6.23;3.13;;;16.20;99.90;;;;;;4992991;28;20453;-64
2023/10/05 09:47:32;;;;;;;4.37;3.73;;;16.30;99.90;;;;;;4988421;28;20441;-64
2023/10/05 09:50:00;;;;;;;8.60;5.00;;;16.40;99.90;;;;;;4993100;28;20464;-65
2023/10/05 09:52:35;;;;;;;7.23;4.10;;;16.50;99.90;;;;;;4993279;28;20484;-64
2023/10/05 09:55:04;;;;;;;4.53;3.20;;;16.60;99.90;;;;;;4992696;28;21013;-64
2023/10/05 09:57:40;;;;;;;4.63;4.00;;;16.60;99.90;;;;;;4992623;28;20947;-65
2023/10/05 10:00:12;;;;;;;3.80;3.40;;;16.70;99.90;;;;;;4993015;28;20472;-64
2023/10/05 10:02:42;;;;;;;4.63;2.90;;;16.80;99.90;;;;;;4993260;28;20897;-65
2023/10/05 10:05:29;;;;;;;3.33;2.90;;;16.90;99.90;;;;;;4992467;28;20465;-64
2023/10/05 10:08:07;;;;;;;7.67;3.27;;;17.00;99.90;;;;;;4993016;28;20461;-64
2023/10/05 10:10:36;;;;;;;3.50;2.87;;;17.00;99.90;;;;;;4992238;28;20465;-65
2023/10/05 10:13:11;;;;;;;5.67;3.43;;;17.10;99.90;;;;;;4992510;28;20548;-65
2023/10/05 10:15:39;;;;;;;7.63;3.87;;;17.20;99.90;;;;;;4992405;28;20485;-64
2023/10/05 10:18:14;;;;;;;4.13;3.47;;;17.30;99.90;;;;;;4992630;28;20501;-65
2023/10/05 10:20:45;;;;;;;4.67;4.10;;;17.30;99.90;;;;;;4992553;28;20477;-64
2023/10/05 10:23:19;;;;;;;7.07;3.67;;;17.40;99.90;;;;;;4992038;28;20453;-64
2023/10/05 10:25:47;;;;;;;5.27;4.20;;;17.40;99.90;;;;;;4992214;28;20447;-65
2023/10/05 10:28:20;;;;;;;4.07;3.67;;;17.50;99.90;;;;;;4992382;28;20445;-65
2023/10/05 10:31:16;;;;;;;4.60;2.97;;;17.40;99.90;;;;;;4991988;28;20474;-65
2023/10/05 10:33:43;;;;;;;3.73;3.30;;;17.40;99.90;;;;;;4991838;28;20497;-65
2023/10/05 10:36:18;;;;;;;5.50;3.20;;;17.40;99.90;;;;;;4992269;28;20849;-65
2023/10/05 10:38:48;;;;;;;5.70;2.77;;;17.40;99.90;;;;;;4992218;28;20826;-64
2023/10/05 10:41:17;;;;;;;7.00;3.00;;;17.40;99.90;;;;;;4991710;28;20489;-64
2023/10/05 10:43:49;;;;;;;6.67;3.07;;;17.40;99.90;;;;;;4991632;28;20450;-64
2023/10/05 10:46:29;;;;;;;9.07;3.87;;;17.40;99.90;;;;;;4992077;28;20527;-64
2023/10/05 10:49:00;;;;;;;5.80;3.50;;;17.40;99.90;;;;;;4992019;28;20454;-64
2023/10/05 10:51:31;;;;;;;5.93;3.13;;;17.50;99.90;;;;;;4991698;28;20493;-65
2023/10/05 10:54:08;;;;;;;5.13;2.93;;;17.40;99.90;;;;;;4976105;28;21022;-65
2023/10/05 10:56:41;;;;;;;5.13;2.97;;;17.40;99.90;;;;;;4991662;28;20484;-64
2023/10/05 10:59:11;;;;;;;9.80;3.80;;;17.30;99.90;;;;;;4991755;28;20450;-65
2023/10/05 11:01:52;;;;;;;4.03;2.83;;;17.30;99.90;;;;;;4991838;28;20917;-64
2023/10/05 11:04:25;;;;;;;4.43;3.23;;;17.30;99.90;;;;;;4991664;28;20430;-65
2023/10/05 11:06:59;;;;;;;3.73;2.63;;;17.20;99.90;;;;;;4991983;28;20477;-64
2023/10/05 11:09:34;;;;;;;4.27;3.20;;;17.20;99.90;;;;;;4991954;28;20469;-64
2023/10/05 11:12:10;;;;;;;5.87;3.30;;;17.20;99.90;;;;;;4976576;28;20500;-62
2023/10/05 11:14:43;;;;;;;3.10;2.40;;;17.20;99.90;;;;;;4991267;28;20473;-63
2023/10/05 11:17:28;;;;;;;5.50;2.67;;;17.20;99.90;;;;;;4991825;28;20536;-62
2023/10/05 11:19:55;;;;;;;6.33;2.97;;;17.20;99.90;;;;;;4991417;28;20476;-62
2023/10/05 11:22:25;;;;;;;5.37;3.43;;;17.10;99.90;;;;;;4991564;28;20544;-63
2023/10/05 11:25:14;;;;;;;9.70;4.70;;;17.10;99.90;;;;;;4991054;28;20533;-62
2023/10/05 11:27:54;;;;;;;4.20;3.40;;;17.10;99.90;;;;;;4991630;28;20493;-62
2023/10/05 11:30:21;;;;;;;4.93;3.00;;;17.10;99.90;;;;;;4991929;28;20519;-63
2023/10/05 11:32:54;;;;;;;3.07;2.63;;;17.20;99.90;;;;;;4991272;28;20492;-62
2023/10/05 11:35:40;;;;;;;3.93;3.53;;;17.10;99.90;;;;;;4991406;28;20447;-63
2023/10/05 11:38:07;;;;;;;4.10;3.00;;;17.10;99.90;;;;;;4977626;28;20482;-62
2023/10/05 11:40:41;;;;;;;4.87;3.33;;;17.10;99.90;;;;;;4991489;28;20485;-63
2023/10/05 11:43:13;;;;;;;3.60;2.73;;;17.00;99.90;;;;;;4991450;28;20826;-62
2023/10/05 11:45:54;;;;;;;7.43;3.50;;;17.00;99.90;;;;;;4991575;28;20958;-63
2023/10/05 11:48:22;;;;;;;5.67;3.97;;;17.00;99.90;;;;;;4991729;28;20531;-62
2023/10/05 11:50:52;;;;;;;3.60;3.23;;;16.90;99.90;;;;;;4991268;28;20472;-63
2023/10/05 11:53:22;;;;;;;5.70;3.20;;;16.90;99.90;;;;;;4991182;28;20564;-63
2023/10/05 11:55:51;;;;;;;5.07;4.57;;;16.90;99.90;;;;;;4994197;28;20453;-62
2023/10/05 11:58:20;;;;;;;3.40;2.87;;;16.90;99.90;;;;;;4994939;28;20446;-62
2023/10/05 12:00:47;;;;;;;5.40;2.87;;;16.90;99.90;;;;;;4995148;28;20466;-62
2023/10/05 12:03:16;;;;;;;4.10;2.70;;;16.90;99.90;;;;;;4994885;28;20449;-62
2023/10/05 12:05:43;;;;;;;4.90;2.67;;;16.90;99.90;;;;;;4994961;28;20457;-62
2023/10/05 12:08:12;;;;;;;3.53;2.80;;;16.90;99.90;;;;;;4995052;28;20529;-63
2023/10/05 12:10:40;;;;;;;7.10;3.20;;;16.90;99.90;;;;;;4994685;28;20477;-62
2023/10/05 12:13:09;;;;;;;6.90;3.57;;;16.90;99.90;;;;;;4994573;28;20487;-62
2023/10/05 12:15:36;;;;;;;5.33;3.00;;;16.90;99.90;;;;;;4994557;28;20533;-64
2023/10/05 12:18:12;;;;;;;6.63;3.00;;;16.90;99.90;;;;;;4994967;28;20866;-64
2023/10/05 12:20:41;;;;;;;4.87;3.50;;;16.90;99.90;;;;;;4994670;28;20842;-64
2023/10/05 12:23:10;;;;;;;5.30;3.20;;;16.90;99.90;;;;;;4994441;28;20446;-65
2023/10/05 12:25:37;;;;;;;4.73;3.10;;;16.90;99.90;;;;;;4994690;28;20548;-64
2023/10/05 12:28:05;;;;;;;3.23;2.90;;;16.80;99.90;;;;;;4994865;28;20446;-64
2023/10/05 12:30:33;;;;;;;5.23;3.20;;;16.80;99.90;;;;;;4996838;28;20470;-64
2023/10/05 12:33:00;;;;;;;5.17;3.33;;;16.80;99.90;;;;;;5001622;28;20481;-64
2023/10/05 12:35:29;;;;;;;5.70;3.83;;;16.80;99.90;;;;;;4994139;28;20998;-64
2023/10/05 12:37:58;;;;;;;5.40;3.20;;;16.70;99.90;;;;;;4994330;28;20449;-64
2023/10/05 12:40:33;;;;;;;4.97;3.10;;;16.70;99.90;;;;;;5018256;22;20521;-67
2023/10/05 12:43:00;;;;;;;6.77;3.33;;;16.60;99.90;;;;;;4998937;28;20435;-67
2023/10/05 12:45:28;;;;;;;4.97;2.70;;;16.60;99.90;;;;;;4997203;28;20479;-67
2023/10/05 12:47:56;;;;;;;5.70;3.33;;;16.60;99.90;;;;;;4981699;28;20544;-67
2023/10/05 12:50:26;;;;;;;6.00;3.60;;;16.60;99.90;;;;;;5006070;28;20540;-67
2023/10/05 12:52:53;;;;;;;4.20;3.80;;;16.50;99.90;;;;;;5005647;28;20475;-67
2023/10/05 12:55:22;;;;;;;4.10;3.70;;;16.50;99.90;;;;;;4998556;28;20537;-67
2023/10/05 12:57:50;;;;;;;5.57;2.77;;;16.50;99.90;;;;;;5010335;28;20497;-67
2023/10/05 13:00:22;;;;;;;5.33;3.20;;;16.40;99.90;;;;;;5000361;28;20491;-67
2023/10/05 13:02:51;;;;;;;4.37;3.23;;;16.40;99.90;;;;;;5002591;28;20818;-67
2023/10/05 13:05:21;;;;;;;8.03;3.10;;;16.40;99.90;;;;;;5008609;28;20455;-68
2023/10/05 13:07:50;;;;;;;5.03;2.67;;;16.40;99.90;;;;;;4997389;28;20448;-67
2023/10/05 13:10:26;;;;;;;5.07;2.70;;;16.40;99.90;;;;;;5006872;28;20829;-67
2023/10/05 13:12:53;;;;;;;4.00;2.17;;;16.40;99.90;;;;;;5005073;28;20452;-67